Time;durP1;ratioP1;P1;durP2;ratioP2;P2;SDS_P1;SDS_P2;PMS_P1;PMS_P2;Temp;Humidity;BMP_temperature;BMP_pressure;BME280_temperature;BME280_humidity;BME280_pressure;Samples;Min_cycle;Max_cycle;Signal;HPM_P1;HPM_P2
2021/05/23 00:00:40;;;;;;;4.90;3.00;;;10.90;89.90;;;;;;2065124;28;20018;-83
2021/05/23 00:01:40;;;;;;;5.22;3.20;;;10.90;89.90;;;;;;2065283;28;20481;-84
2021/05/23 00:02:41;;;;;;;6.32;3.08;;;10.90;89.90;;;;;;2064691;28;20031;-84
2021/05/23 00:03:42;;;;;;;5.45;3.30;;;10.80;89.90;;;;;;2064573;28;20026;-84
2021/05/23 00:04:43;;;;;;;5.63;3.40;;;10.90;89.90;;;;;;2067697;28;20138;-84
2021/05/23 00:05:45;;;;;;;5.20;3.08;;;10.90;89.90;;;;;;2065048;28;20058;-84
2021/05/23 00:06:46;;;;;;;4.78;2.97;;;10.90;90.00;;;;;;2064855;28;20447;-84
2021/05/23 00:08:04;;;;;;;5.25;3.50;;;10.80;89.80;;;;;;2065151;28;20035;-83
2021/05/23 00:09:05;;;;;;;5.43;3.22;;;10.90;90.20;;;;;;2065195;28;20022;-83
2021/05/23 00:10:06;;;;;;;5.15;3.22;;;10.80;89.80;;;;;;2073126;28;20528;-83
2021/05/23 00:11:09;;;;;;;5.80;3.00;;;10.80;89.70;;;;;;2073139;28;20397;-84
2021/05/23 00:12:16;;;;;;;4.72;2.97;;;10.80;89.70;;;;;;2057179;28;20096;-84
2021/05/23 00:13:19;;;;;;;5.38;3.20;;;10.80;89.80;;;;;;2058000;28;20122;-84
2021/05/23 00:14:21;;;;;;;5.18;3.28;;;10.80;89.80;;;;;;2049992;28;20474;-84
2021/05/23 00:15:29;;;;;;;4.65;3.20;;;10.80;89.80;;;;;;2049527;28;20035;-84
2021/05/23 00:16:30;;;;;;;5.10;3.03;;;10.70;89.80;;;;;;2057931;28;20054;-84
2021/05/23 00:17:30;;;;;;;6.07;3.10;;;10.70;89.80;;;;;;2056752;28;20494;-84
2021/05/23 00:18:34;;;;;;;5.72;3.15;;;10.70;89.90;;;;;;2072957;28;20058;-83
2021/05/23 00:19:35;;;;;;;5.35;3.15;;;10.70;89.90;;;;;;2073089;28;20511;-83
2021/05/23 00:20:37;;;;;;;6.22;3.40;;;10.70;89.90;;;;;;2064778;28;20089;-83
2021/05/23 00:21:38;;;;;;;7.25;3.22;;;10.70;90.00;;;;;;2072892;28;20041;-84
2021/05/23 00:22:38;;;;;;;5.65;3.13;;;10.70;90.00;;;;;;2073198;28;20062;-84
2021/05/23 00:23:39;;;;;;;5.43;3.45;;;10.70;90.00;;;;;;2064919;28;20042;-83
2021/05/23 00:24:40;;;;;;;5.80;3.30;;;10.70;90.00;;;;;;2065013;28;20114;-83
2021/05/23 00:25:41;;;;;;;5.30;3.08;;;10.70;90.00;;;;;;2064921;28;20034;-84
2021/05/23 00:26:42;;;;;;;5.57;3.10;;;10.70;90.00;;;;;;2064890;28;20500;-84
2021/05/23 00:27:43;;;;;;;5.13;3.28;;;10.70;90.00;;;;;;2060546;28;20057;-84
2021/05/23 00:28:44;;;;;;;5.10;3.47;;;10.70;90.00;;;;;;2064917;28;20474;-84
2021/05/23 00:29:45;;;;;;;5.30;3.30;;;10.70;90.00;;;;;;2073108;28;20026;-84
2021/05/23 00:30:45;;;;;;;5.70;3.60;;;10.70;90.00;;;;;;2065085;28;20026;-84
2021/05/23 00:31:46;;;;;;;6.82;3.28;;;10.70;90.00;;;;;;2057007;28;20037;-84
2021/05/23 00:32:47;;;;;;;6.60;4.35;;;10.70;90.00;;;;;;2072926;28;20428;-84
2021/05/23 00:33:48;;;;;;;6.15;3.50;;;10.70;90.00;;;;;;2056934;28;20026;-84
2021/05/23 00:34:49;;;;;;;5.90;3.53;;;10.70;90.10;;;;;;2057042;28;20050;-84
2021/05/23 00:35:49;;;;;;;6.55;3.78;;;10.70;90.10;;;;;;2064936;28;20397;-84
2021/05/23 00:36:51;;;;;;;6.32;3.85;;;10.70;90.10;;;;;;2056894;28;20031;-84
2021/05/23 00:37:52;;;;;;;5.03;3.22;;;10.70;90.10;;;;;;2057021;28;20022;-84
2021/05/23 00:38:53;;;;;;;5.57;3.40;;;10.70;90.10;;;;;;2063463;28;20074;-83
2021/05/23 00:39:53;;;;;;;5.75;3.60;;;10.70;90.10;;;;;;2064902;28;20022;-84
2021/05/23 00:40:54;;;;;;;5.55;3.72;;;10.70;90.10;;;;;;2056801;28;20428;-83
2021/05/23 00:41:55;;;;;;;6.03;3.40;;;10.70;90.10;;;;;;2064672;28;20056;-83
2021/05/23 00:42:55;;;;;;;4.82;3.28;;;10.70;90.10;;;;;;2064606;28;20037;-84
2021/05/23 00:43:56;;;;;;;6.68;3.30;;;10.70;90.10;;;;;;2061026;28;20121;-84
2021/05/23 00:44:57;;;;;;;5.93;3.42;;;10.70;90.10;;;;;;2050574;28;20492;-84
2021/05/23 00:45:58;;;;;;;5.90;3.58;;;10.70;90.10;;;;;;2056085;28;20034;-84
2021/05/23 00:46:59;;;;;;;5.50;3.45;;;10.70;90.10;;;;;;2072918;28;20028;-83
2021/05/23 00:48:00;;;;;;;6.38;3.63;;;10.70;90.10;;;;;;2069276;28;20141;-84
2021/05/23 00:49:00;;;;;;;5.32;3.47;;;10.70;90.10;;;;;;2062583;28;20120;-84
2021/05/23 00:50:01;;;;;;;5.63;3.90;;;10.70;90.10;;;;;;2072856;28;20396;-83
2021/05/23 00:51:02;;;;;;;5.22;3.38;;;10.70;90.10;;;;;;2081107;28;20026;-84
2021/05/23 00:52:06;;;;;;;5.38;3.53;;;10.70;90.10;;;;;;2081202;28;20029;-84
2021/05/23 00:53:09;;;;;;;7.38;3.60;;;10.70;90.10;;;;;;2081134;28;20034;-83
2021/05/23 00:54:09;;;;;;;6.65;3.83;;;10.60;90.10;;;;;;2073129;28;20061;-84
2021/05/23 00:55:10;;;;;;;5.97;3.78;;;10.60;90.10;;;;;;2072743;28;20029;-84
2021/05/23 00:56:16;;;;;;;6.63;3.88;;;10.70;90.10;;;;;;2072935;28;20515;-83
2021/05/23 00:57:17;;;;;;;6.65;4.00;;;10.60;90.10;;;;;;2073723;28;20088;-84
2021/05/23 00:58:19;;;;;;;6.38;3.88;;;10.60;90.10;;;;;;2072636;28;20033;-84
2021/05/23 00:59:20;;;;;;;6.68;3.80;;;10.60;90.10;;;;;;2065290;28;20122;-83
2021/05/23 01:00:35;;;;;;;5.50;3.78;;;10.60;90.10;;;;;;2056630;28;20028;-84
2021/05/23 01:01:44;;;;;;;6.80;4.00;;;10.60;90.10;;;;;;2070563;28;20037;-84
2021/05/23 01:02:48;;;;;;;7.07;4.00;;;10.60;90.20;;;;;;2081126;28;20029;-84
2021/05/23 01:03:57;;;;;;;6.68;4.07;;;10.60;90.10;;;;;;2073103;28;20030;-83
2021/05/23 01:04:58;;;;;;;5.68;3.88;;;10.60;90.20;;;;;;2065833;28;20536;-84
2021/05/23 01:06:04;;;;;;;7.30;3.58;;;10.60;90.10;;;;;;2071930;28;20033;-83
2021/05/23 01:07:04;;;;;;;6.68;4.10;;;10.50;90.10;;;;;;2080904;28;20614;-84
2021/05/23 01:08:05;;;;;;;6.97;4.00;;;10.60;90.20;;;;;;2072906;28;20056;-83
2021/05/23 01:09:08;;;;;;;6.40;3.72;;;10.50;90.10;;;;;;2072519;28;20030;-84
2021/05/23 01:10:12;;;;;;;6.68;4.20;;;10.50;90.10;;;;;;2089028;28;20025;-83
2021/05/23 01:11:16;;;;;;;5.70;4.00;;;10.50;90.10;;;;;;2088852;28;20467;-83
2021/05/23 01:12:25;;;;;;;6.00;3.55;;;10.50;90.10;;;;;;2081511;28;20026;-83
2021/05/23 01:13:58;;;;;;;6.32;3.95;;;10.50;90.10;;;;;;2081643;28;20021;-84
2021/05/23 01:15:01;;;;;;;7.85;3.72;;;10.50;90.10;;;;;;2080842;28;20048;-84
2021/05/23 01:16:12;;;;;;;7.18;3.78;;;10.50;90.10;;;;;;2073414;28;20014;-83
2021/05/23 01:17:14;;;;;;;6.00;3.85;;;10.50;90.10;;;;;;2072676;28;20038;-83
2021/05/23 01:18:19;;;;;;;5.22;3.60;;;10.50;90.10;;;;;;2064954;28;20018;-84
2021/05/23 01:19:35;;;;;;;5.38;3.20;;;10.50;90.20;;;;;;2081071;28;20017;-84
2021/05/23 01:20:55;;;;;;;5.35;3.42;;;10.50;90.50;;;;;;2074633;28;20077;-84
2021/05/23 01:22:12;;;;;;;5.60;3.67;;;10.50;90.20;;;;;;2082781;28;20034;-83
2021/05/23 01:23:24;;;;;;;5.13;3.15;;;10.50;90.10;;;;;;2080937;28;20387;-84
2021/05/23 01:24:35;;;;;;;5.57;3.42;;;10.50;90.10;;;;;;2081157;28;20515;-84
2021/05/23 01:25:39;;;;;;;5.68;3.33;;;10.50;90.20;;;;;;2081163;28;20076;-84
2021/05/23 01:26:48;;;;;;;6.45;3.53;;;10.50;90.10;;;;;;2072720;28;20192;-84
2021/05/23 01:27:51;;;;;;;6.03;3.58;;;10.50;90.20;;;;;;2065824;28;20099;-84
2021/05/23 01:29:00;;;;;;;6.30;3.65;;;10.50;90.20;;;;;;2058150;28;20026;-84
2021/05/23 01:30:03;;;;;;;6.15;3.40;;;10.50;90.20;;;;;;2066567;28;20034;-84
2021/05/23 01:31:13;;;;;;;7.30;3.92;;;10.50;90.20;;;;;;2072755;28;20049;-84
2021/05/23 01:32:13;;;;;;;5.63;3.80;;;10.50;90.20;;;;;;2073928;28;20026;-84
2021/05/23 01:33:17;;;;;;;6.80;3.83;;;10.50;90.20;;;;;;2064589;28;20516;-84
2021/05/23 01:34:21;;;;;;;6.68;3.72;;;10.50;90.20;;;;;;2067182;28;20026;-83
2021/05/23 01:35:25;;;;;;;6.45;3.80;;;10.50;90.20;;;;;;2072392;28;20032;-84
2021/05/23 01:36:32;;;;;;;7.13;3.85;;;10.50;90.20;;;;;;2065153;28;20022;-83
2021/05/23 01:37:32;;;;;;;7.18;3.63;;;10.50;90.20;;;;;;2072862;28;20030;-84
2021/05/23 01:38:35;;;;;;;6.55;4.00;;;10.50;90.20;;;;;;2072795;28;20041;-84
2021/05/23 01:39:35;;;;;;;5.18;3.42;;;10.50;90.30;;;;;;2060506;28;20026;-83
2021/05/23 01:40:36;;;;;;;6.43;3.90;;;10.50;90.30;;;;;;2066142;28;20519;-83
2021/05/23 01:41:39;;;;;;;5.45;3.80;;;10.40;90.20;;;;;;2066208;28;20034;-84
2021/05/23 01:42:40;;;;;;;6.35;3.70;;;10.50;90.30;;;;;;2074619;28;20030;-83
2021/05/23 01:43:41;;;;;;;5.75;3.60;;;10.50;90.30;;;;;;2082486;28;20084;-84
2021/05/23 01:44:42;;;;;;;5.95;3.72;;;10.50;90.30;;;;;;2066096;28;20026;-83
2021/05/23 01:45:43;;;;;;;5.72;3.60;;;10.50;90.30;;;;;;2058170;28;20525;-84
2021/05/23 01:46:44;;;;;;;6.70;3.90;;;10.50;90.60;;;;;;2074191;28;20405;-84
2021/05/23 01:47:46;;;;;;;5.55;3.60;;;10.50;90.30;;;;;;2074043;28;20038;-84
2021/05/23 01:48:47;;;;;;;4.85;3.30;;;10.50;90.30;;;;;;2070570;28;20046;-84
2021/05/23 01:49:47;;;;;;;5.78;3.80;;;10.50;90.30;;;;;;2069718;28;20424;-84
2021/05/23 01:50:48;;;;;;;6.72;4.05;;;10.50;90.30;;;;;;2058113;28;20058;-84
2021/05/23 01:51:49;;;;;;;6.18;3.55;;;10.50;90.30;;;;;;2057952;28;20501;-83
2021/05/23 01:52:56;;;;;;;6.88;3.88;;;10.50;90.30;;;;;;2058118;28;20027;-84
2021/05/23 01:53:58;;;;;;;7.15;3.80;;;10.50;90.30;;;;;;2067753;28;20022;-84
2021/05/23 01:54:59;;;;;;;5.32;3.67;;;10.50;90.30;;;;;;2074233;28;20021;-84
2021/05/23 01:55:59;;;;;;;6.00;3.20;;;10.50;90.30;;;;;;2074210;28;20030;-84
2021/05/23 01:57:00;;;;;;;5.65;3.55;;;10.50;90.30;;;;;;2074072;28;20089;-84
2021/05/23 01:58:01;;;;;;;5.05;3.50;;;10.50;90.30;;;;;;2058075;28;20054;-84
2021/05/23 01:59:02;;;;;;;5.30;3.40;;;10.50;90.30;;;;;;2058123;28;20027;-84
2021/05/23 02:00:03;;;;;;;7.18;3.70;;;10.50;90.30;;;;;;2065977;28;20551;-84
2021/05/23 02:01:04;;;;;;;5.72;3.50;;;10.50;90.30;;;;;;2074327;28;20034;-84
2021/05/23 02:02:05;;;;;;;5.50;3.60;;;10.50;90.30;;;;;;2074118;28;20064;-83
2021/05/23 02:03:09;;;;;;;6.85;3.50;;;10.50;90.30;;;;;;2066062;28;20030;-84
2021/05/23 02:04:10;;;;;;;5.35;3.47;;;10.40;90.30;;;;;;2066734;28;20030;-82
2021/05/23 02:05:12;;;;;;;5.53;3.45;;;10.40;90.30;;;;;;2078179;28;20065;-83
2021/05/23 02:06:13;;;;;;;6.00;3.80;;;10.40;90.30;;;;;;2074236;28;20018;-84
2021/05/23 02:07:14;;;;;;;5.47;3.30;;;10.40;90.30;;;;;;2074252;28;20229;-84
2021/05/23 02:08:17;;;;;;;5.18;3.33;;;10.40;90.30;;;;;;2057833;28;20027;-83
2021/05/23 02:09:18;;;;;;;6.70;3.20;;;10.40;90.40;;;;;;2066879;28;20026;-84
2021/05/23 02:10:20;;;;;;;6.40;3.55;;;10.30;90.40;;;;;;2082158;28;20129;-84
2021/05/23 02:11:20;;;;;;;5.35;3.25;;;10.30;90.40;;;;;;2082371;28;20032;-84
2021/05/23 02:12:22;;;;;;;5.40;3.50;;;10.30;90.40;;;;;;2074005;28;20026;-84
2021/05/23 02:13:22;;;;;;;5.68;3.30;;;10.30;90.40;;;;;;2058170;28;20038;-84
2021/05/23 02:14:23;;;;;;;5.10;3.40;;;10.30;90.40;;;;;;2058058;28;20481;-83
2021/05/23 02:15:24;;;;;;;5.93;3.58;;;10.30;90.40;;;;;;2073914;28;20065;-84
2021/05/23 02:16:24;;;;;;;5.97;3.55;;;10.30;90.40;;;;;;2073910;28;20496;-84
2021/05/23 02:17:25;;;;;;;6.22;3.78;;;10.30;90.50;;;;;;2058306;28;20035;-83
2021/05/23 02:18:26;;;;;;;7.72;3.58;;;10.30;90.50;;;;;;2057910;28;20027;-83
2021/05/23 02:19:27;;;;;;;6.68;3.47;;;10.30;90.50;;;;;;2066105;28;20069;-84
2021/05/23 02:20:30;;;;;;;6.18;3.40;;;10.30;90.50;;;;;;2065887;28;20026;-84
2021/05/23 02:21:30;;;;;;;6.15;3.65;;;10.30;90.50;;;;;;2066266;28;20035;-84
2021/05/23 02:22:31;;;;;;;5.45;3.35;;;10.30;90.50;;;;;;2082227;28;20026;-84
2021/05/23 02:23:32;;;;;;;5.78;3.53;;;10.30;90.50;;;;;;2065903;28;20041;-83
2021/05/23 02:24:32;;;;;;;6.68;4.00;;;10.30;90.50;;;;;;2064899;28;20084;-84
2021/05/23 02:25:34;;;;;;;5.22;3.28;;;10.30;90.50;;;;;;2070121;28;20027;-84
2021/05/23 02:26:34;;;;;;;6.43;3.60;;;10.30;90.50;;;;;;2073976;28;20022;-84
2021/05/23 02:27:40;;;;;;;5.10;3.55;;;10.30;90.50;;;;;;2065762;28;20555;-84
2021/05/23 02:28:40;;;;;;;5.57;3.25;;;10.30;90.50;;;;;;2067180;28;20506;-84
2021/05/23 02:29:41;;;;;;;4.85;3.33;;;10.30;90.50;;;;;;2073919;28;20033;-83
2021/05/23 02:30:49;;;;;;;5.82;3.70;;;10.30;90.50;;;;;;2065858;28;20074;-84
2021/05/23 02:31:50;;;;;;;6.18;3.80;;;10.30;90.50;;;;;;2067729;28;20041;-84
2021/05/23 02:32:51;;;;;;;5.68;3.40;;;10.30;90.50;;;;;;2073969;28;20038;-84
2021/05/23 02:33:52;;;;;;;6.05;3.55;;;10.30;90.50;;;;;;2065998;28;20134;-84
2021/05/23 02:34:53;;;;;;;4.97;3.50;;;10.30;90.50;;;;;;2073931;28;20615;-84
2021/05/23 02:35:55;;;;;;;5.47;3.55;;;10.30;90.50;;;;;;2073815;28;20022;-84
2021/05/23 02:36:58;;;;;;;6.40;3.60;;;10.30;90.50;;;;;;2074191;28;20029;-84
2021/05/23 02:38:00;;;;;;;5.53;3.80;;;10.30;90.50;;;;;;2074107;28;20026;-84
2021/05/23 02:39:00;;;;;;;6.03;3.50;;;10.30;90.50;;;;;;2065998;28;20101;-83
2021/05/23 02:40:06;;;;;;;6.40;4.18;;;10.30;90.50;;;;;;2073803;28;20077;-83
2021/05/23 02:41:07;;;;;;;5.82;3.30;;;10.30;90.50;;;;;;2074270;28;20025;-84
2021/05/23 02:42:07;;;;;;;5.43;3.70;;;10.30;90.50;;;;;;2072374;28;20029;-84
2021/05/23 02:43:09;;;;;;;7.68;3.80;;;10.30;90.50;;;;;;2073832;28;20022;-84
2021/05/23 02:44:10;;;;;;;8.32;4.00;;;10.30;90.50;;;;;;2073880;28;20475;-84
2021/05/23 02:45:13;;;;;;;6.13;3.63;;;10.30;90.50;;;;;;2058317;28;20058;-83
2021/05/23 02:46:13;;;;;;;5.78;3.95;;;10.30;90.50;;;;;;2058519;28;20022;-84
2021/05/23 02:47:14;;;;;;;7.35;4.05;;;10.30;90.50;;;;;;2066021;28;20502;-84
2021/05/23 02:48:15;;;;;;;6.97;4.15;;;10.20;90.50;;;;;;2065348;28;20034;-83
2021/05/23 02:49:16;;;;;;;5.72;4.18;;;10.20;90.50;;;;;;2057980;28;20042;-83
2021/05/23 02:50:20;;;;;;;5.45;3.70;;;10.20;90.50;;;;;;2065681;28;20448;-84
2021/05/23 02:51:21;;;;;;;5.35;3.95;;;10.20;90.60;;;;;;2065072;28;20085;-84
2021/05/23 02:52:22;;;;;;;5.88;3.92;;;10.20;90.60;;;;;;2065626;28;20043;-84
2021/05/23 02:53:22;;;;;;;5.57;3.72;;;10.20;90.60;;;;;;2057813;28;20082;-84
2021/05/23 02:54:23;;;;;;;6.80;4.28;;;10.20;90.60;;;;;;2057678;28;20050;-83
2021/05/23 02:55:24;;;;;;;6.40;4.40;;;10.20;90.60;;;;;;2066287;28;20023;-84
2021/05/23 02:56:25;;;;;;;7.75;4.38;;;10.20;90.60;;;;;;2065670;28;20057;-84
2021/05/23 02:57:26;;;;;;;8.07;4.70;;;10.20;90.60;;;;;;2065212;28;20457;-84
2021/05/23 02:58:27;;;;;;;6.70;4.32;;;10.20;90.60;;;;;;2081938;28;20033;-83
2021/05/23 02:59:28;;;;;;;6.28;4.22;;;10.20;90.60;;;;;;2073491;28;20096;-84
2021/05/23 03:00:28;;;;;;;7.32;4.40;;;10.20;90.60;;;;;;2057731;28;20033;-83
2021/05/23 03:01:29;;;;;;;7.13;4.43;;;10.20;90.60;;;;;;2065572;28;20037;-83
2021/05/23 03:02:30;;;;;;;6.60;4.50;;;10.20;90.60;;;;;;2081946;28;20030;-83
2021/05/23 03:03:30;;;;;;;7.50;4.50;;;10.20;90.60;;;;;;2065591;28;20042;-84
2021/05/23 03:04:31;;;;;;;7.57;4.53;;;10.20;90.60;;;;;;2065681;28;20030;-83
2021/05/23 03:05:32;;;;;;;6.22;4.63;;;10.20;90.60;;;;;;2065766;28;20015;-84
2021/05/23 03:06:32;;;;;;;6.68;4.05;;;10.20;90.60;;;;;;2057356;28;20034;-84
2021/05/23 03:07:39;;;;;;;7.13;4.47;;;10.20;90.60;;;;;;2057685;28;20122;-84
2021/05/23 03:08:40;;;;;;;7.90;4.43;;;10.20;90.70;;;;;;2066411;28;20113;-83
2021/05/23 03:09:41;;;;;;;5.70;4.13;;;10.20;90.70;;;;;;2073710;28;20041;-84
2021/05/23 03:10:47;;;;;;;7.30;4.60;;;10.10;90.60;;;;;;2057502;28;20027;-84
2021/05/23 03:11:48;;;;;;;6.20;4.45;;;10.20;90.70;;;;;;2058905;28;20472;-84
2021/05/23 03:12:49;;;;;;;7.20;4.13;;;10.10;90.70;;;;;;2081159;28;20051;-84
2021/05/23 03:13:50;;;;;;;5.60;4.32;;;10.20;90.70;;;;;;2073214;28;20026;-83
2021/05/23 03:14:50;;;;;;;6.47;4.53;;;10.10;90.70;;;;;;2065893;28;20062;-83
2021/05/23 03:15:51;;;;;;;7.03;4.78;;;10.20;90.70;;;;;;2075450;28;20006;-83
2021/05/23 03:16:52;;;;;;;6.40;4.65;;;10.10;90.70;;;;;;2084073;28;20041;-83
2021/05/23 03:17:53;;;;;;;6.10;4.53;;;10.10;90.70;;;;;;2083736;28;20089;-84
2021/05/23 03:18:54;;;;;;;7.45;4.63;;;10.10;90.70;;;;;;2083852;28;20029;-83
2021/05/23 03:19:54;;;;;;;7.25;5.10;;;10.10;90.70;;;;;;2092176;28;20018;-83
2021/05/23 03:20:55;;;;;;;7.40;4.97;;;10.10;90.70;;;;;;2084106;28;20018;-82
2021/05/23 03:21:56;;;;;;;7.60;4.80;;;10.10;90.70;;;;;;2085680;28;20072;-84
2021/05/23 03:22:58;;;;;;;8.43;5.30;;;10.10;90.70;;;;;;2082637;28;20032;-83
2021/05/23 03:23:58;;;;;;;7.30;5.07;;;10.10;90.70;;;;;;2067625;28;20042;-84
2021/05/23 03:24:59;;;;;;;7.32;5.10;;;10.10;90.70;;;;;;2066285;28;20065;-84
2021/05/23 03:25:59;;;;;;;9.05;5.47;;;10.10;90.90;;;;;;2082375;28;20037;-82
2021/05/23 03:27:01;;;;;;;9.15;5.78;;;10.10;90.70;;;;;;2083821;28;20030;-84
2021/05/23 03:28:02;;;;;;;8.50;5.60;;;10.10;90.70;;;;;;2083932;28;20017;-83
2021/05/23 03:29:03;;;;;;;8.57;5.68;;;10.10;90.80;;;;;;2083592;28;20036;-83
2021/05/23 03:30:07;;;;;;;7.95;5.65;;;10.10;90.70;;;;;;2074712;28;20041;-84
2021/05/23 03:31:08;;;;;;;7.63;5.47;;;10.10;90.80;;;;;;2063752;28;20019;-84
2021/05/23 03:32:09;;;;;;;7.43;5.45;;;10.10;90.80;;;;;;2065946;28;20496;-83
2021/05/23 03:33:11;;;;;;;7.65;5.28;;;10.10;90.80;;;;;;2066157;28;20027;-83
2021/05/23 03:34:11;;;;;;;7.10;5.45;;;10.10;90.80;;;;;;2066300;28;20023;-84
2021/05/23 03:35:13;;;;;;;8.02;6.00;;;10.10;90.80;;;;;;2065936;28;20049;-83
2021/05/23 03:36:14;;;;;;;7.40;5.30;;;10.10;90.80;;;;;;2074041;28;20034;-83
2021/05/23 03:37:14;;;;;;;7.53;5.47;;;10.10;90.80;;;;;;2082144;28;20026;-84
2021/05/23 03:38:15;;;;;;;8.40;5.47;;;10.10;90.80;;;;;;2074001;28;20392;-83
2021/05/23 03:39:16;;;;;;;7.93;5.75;;;10.20;90.80;;;;;;2065630;28;20027;-84
2021/05/23 03:40:17;;;;;;;7.20;5.53;;;10.20;90.80;;;;;;2057418;28;20381;-83
2021/05/23 03:41:18;;;;;;;7.75;5.85;;;10.10;90.80;;;;;;2057708;28;20513;-84
2021/05/23 03:42:19;;;;;;;8.18;5.93;;;10.10;90.80;;;;;;2065463;28;20073;-83
2021/05/23 03:43:19;;;;;;;8.02;5.75;;;10.20;90.80;;;;;;2065648;28;20510;-84
2021/05/23 03:44:20;;;;;;;7.32;5.93;;;10.20;90.80;;;;;;2069484;28;20037;-84
2021/05/23 03:45:23;;;;;;;7.55;5.80;;;10.20;90.80;;;;;;2057800;28;20027;-83
2021/05/23 03:46:24;;;;;;;8.25;6.22;;;10.20;91.00;;;;;;2069044;28;20030;-84
2021/05/23 03:47:25;;;;;;;7.68;5.93;;;10.20;90.80;;;;;;2083987;28;20074;-83
2021/05/23 03:48:25;;;;;;;7.65;6.13;;;10.20;90.70;;;;;;2058676;28;20027;-83
2021/05/23 03:49:26;;;;;;;7.38;5.45;;;10.20;90.70;;;;;;2066652;28;20023;-83
2021/05/23 03:50:27;;;;;;;7.10;5.85;;;10.20;91.00;;;;;;2083132;28;20037;-83
2021/05/23 03:51:30;;;;;;;7.80;5.90;;;10.30;90.70;;;;;;2083297;28;20010;-85
2021/05/23 03:52:31;;;;;;;8.88;6.32;;;10.30;90.70;;;;;;2083413;28;20041;-84
2021/05/23 03:53:31;;;;;;;8.32;6.47;;;10.30;90.70;;;;;;2073641;28;20373;-83
2021/05/23 03:54:32;;;;;;;9.23;6.90;;;10.30;90.70;;;;;;2073253;28;20100;-84
2021/05/23 03:55:34;;;;;;;9.52;6.38;;;10.30;90.70;;;;;;2065412;28;20034;-84
2021/05/23 03:56:35;;;;;;;8.75;6.35;;;10.30;90.70;;;;;;2073497;28;20033;-84
2021/05/23 03:57:36;;;;;;;8.00;6.30;;;10.40;90.70;;;;;;2081501;28;20061;-84
2021/05/23 03:58:36;;;;;;;8.50;6.55;;;10.30;90.60;;;;;;2065123;28;20512;-84
2021/05/23 03:59:37;;;;;;;8.48;6.20;;;10.30;90.60;;;;;;2065179;28;20071;-83
2021/05/23 04:00:38;;;;;;;7.72;6.22;;;10.30;90.60;;;;;;2081591;28;20025;-84
2021/05/23 04:01:38;;;;;;;9.18;6.43;;;10.30;90.70;;;;;;2073321;28;20032;-84
2021/05/23 04:02:40;;;;;;;9.27;6.60;;;10.30;90.70;;;;;;2064879;28;20031;-84
2021/05/23 04:03:42;;;;;;;8.63;6.55;;;10.30;90.70;;;;;;2073172;28;20072;-83
2021/05/23 04:04:47;;;;;;;8.45;6.10;;;10.30;90.70;;;;;;2072897;28;20022;-84
2021/05/23 04:05:48;;;;;;;7.97;6.45;;;10.30;90.70;;;;;;2065191;28;20037;-84
2021/05/23 04:06:49;;;;;;;7.55;6.10;;;10.30;90.70;;;;;;2073777;28;20034;-84
2021/05/23 04:07:51;;;;;;;8.15;6.13;;;10.30;90.70;;;;;;2074525;28;20034;-84
2021/05/23 04:08:52;;;;;;;8.07;6.10;;;10.30;91.00;;;;;;2064964;28;20377;-83
2021/05/23 04:09:54;;;;;;;8.05;6.10;;;10.30;90.70;;;;;;2065275;28;20149;-84
2021/05/23 04:11:00;;;;;;;9.23;6.30;;;10.30;90.70;;;;;;2073053;28;20025;-83
2021/05/23 04:12:01;;;;;;;7.88;5.82;;;10.30;90.80;;;;;;2058664;28;20492;-84
2021/05/23 04:13:04;;;;;;;9.38;6.15;;;10.30;90.80;;;;;;2073904;28;20117;-84
2021/05/23 04:14:05;;;;;;;8.82;6.45;;;10.30;90.80;;;;;;2081333;28;20121;-84
2021/05/23 04:15:07;;;;;;;8.25;6.63;;;10.30;90.80;;;;;;2073063;28;20038;-83
2021/05/23 04:16:10;;;;;;;7.82;6.28;;;10.40;90.80;;;;;;2073058;28;20022;-84
2021/05/23 04:17:11;;;;;;;9.30;6.78;;;10.40;90.80;;;;;;2073618;28;20069;-84
2021/05/23 04:18:12;;;;;;;9.38;7.05;;;10.40;90.80;;;;;;2056873;28;20520;-84
2021/05/23 04:19:12;;;;;;;8.57;6.32;;;10.40;90.80;;;;;;2056973;28;20026;-84
2021/05/23 04:20:16;;;;;;;9.60;6.93;;;10.40;90.80;;;;;;2081179;28;20021;-83
2021/05/23 04:21:18;;;;;;;8.52;6.70;;;10.40;90.80;;;;;;2073544;28;20492;-84
2021/05/23 04:22:19;;;;;;;8.55;6.40;;;10.40;90.80;;;;;;2073154;28;20037;-84
2021/05/23 04:23:20;;;;;;;8.23;6.45;;;10.40;90.80;;;;;;2064393;28;20400;-83
2021/05/23 04:24:21;;;;;;;9.55;6.90;;;10.40;90.80;;;;;;2070851;28;20038;-83
2021/05/23 04:25:23;;;;;;;8.27;6.40;;;10.40;90.80;;;;;;2073066;28;20480;-84
2021/05/23 04:26:23;;;;;;;9.88;6.97;;;10.40;90.80;;;;;;2073293;28;20026;-84
2021/05/23 04:27:25;;;;;;;10.73;7.35;;;10.40;90.80;;;;;;2072953;28;20034;-83
2021/05/23 04:28:26;;;;;;;8.85;6.93;;;10.40;90.80;;;;;;2080993;28;20491;-84
2021/05/23 04:29:26;;;;;;;9.05;6.97;;;10.40;90.80;;;;;;2065016;28;20066;-84
2021/05/23 04:30:28;;;;;;;10.35;7.55;;;10.40;90.80;;;;;;2081136;28;20120;-83
2021/05/23 04:31:28;;;;;;;10.23;7.72;;;10.40;90.80;;;;;;2080342;28;20017;-83
2021/05/23 04:32:29;;;;;;;9.50;7.25;;;10.40;90.80;;;;;;2064953;28;20621;-83
2021/05/23 04:33:29;;;;;;;10.23;7.95;;;10.40;90.80;;;;;;2064912;28;20034;-84
2021/05/23 04:34:30;;;;;;;11.68;8.50;;;10.40;90.80;;;;;;2064887;28;20038;-84
2021/05/23 04:35:31;;;;;;;10.25;7.90;;;10.50;90.80;;;;;;2072974;28;20096;-84
2021/05/23 04:36:31;;;;;;;9.93;7.75;;;10.50;90.90;;;;;;2072670;28;20030;-83
2021/05/23 04:37:33;;;;;;;10.70;7.97;;;10.50;90.90;;;;;;2081329;28;20064;-84
2021/05/23 04:38:33;;;;;;;10.60;8.10;;;10.50;90.90;;;;;;2089328;28;20407;-83
2021/05/23 04:39:34;;;;;;;11.15;8.32;;;10.50;90.90;;;;;;2081754;28;20021;-84
2021/05/23 04:40:35;;;;;;;10.35;7.88;;;10.50;90.90;;;;;;2072765;28;20117;-83
2021/05/23 04:41:36;;;;;;;10.05;8.18;;;10.50;90.90;;;;;;2064564;28;20038;-83
2021/05/23 04:42:37;;;;;;;10.32;8.20;;;10.50;90.90;;;;;;2064899;28;20026;-84
2021/05/23 04:43:38;;;;;;;10.90;8.27;;;10.50;90.90;;;;;;2072882;28;20048;-83
2021/05/23 04:44:38;;;;;;;12.65;8.80;;;10.50;90.90;;;;;;2072829;28;20128;-83
2021/05/23 04:45:39;;;;;;;10.77;8.70;;;10.50;90.90;;;;;;2081255;28;20030;-84
2021/05/23 04:46:40;;;;;;;11.02;9.05;;;10.50;90.90;;;;;;2072800;28;20405;-83
2021/05/23 04:47:41;;;;;;;10.48;8.30;;;10.50;90.90;;;;;;2072084;28;20125;-84
2021/05/23 04:48:41;;;;;;;11.45;9.00;;;10.50;90.90;;;;;;2072833;28;20053;-84
2021/05/23 04:49:43;;;;;;;12.75;9.63;;;10.50;90.90;;;;;;2064937;28;20050;-84
2021/05/23 04:50:43;;;;;;;12.35;9.88;;;10.60;91.00;;;;;;2056772;28;20031;-84
2021/05/23 04:51:44;;;;;;;11.63;9.13;;;10.60;90.90;;;;;;2056678;28;20035;-83
2021/05/23 04:52:45;;;;;;;11.88;9.30;;;10.60;90.90;;;;;;2058366;28;20026;-83
2021/05/23 04:53:46;;;;;;;13.85;10.43;;;10.60;90.90;;;;;;2073125;28;20030;-83
2021/05/23 04:54:46;;;;;;;12.00;9.90;;;10.60;90.90;;;;;;2072930;28;20026;-84
2021/05/23 04:55:47;;;;;;;13.23;10.63;;;10.60;91.20;;;;;;2072858;28;20038;-83
2021/05/23 04:56:48;;;;;;;14.50;11.85;;;10.60;90.90;;;;;;2080958;28;20025;-83
2021/05/23 04:57:49;;;;;;;14.50;11.13;;;10.60;90.90;;;;;;2072685;28;20069;-84
2021/05/23 04:58:49;;;;;;;14.43;11.90;;;10.70;90.90;;;;;;2072827;28;20488;-84
2021/05/23 04:59:52;;;;;;;14.18;11.75;;;10.70;90.90;;;;;;2081145;28;20022;-83
2021/05/23 05:00:52;;;;;;;15.02;12.05;;;10.70;90.90;;;;;;2072805;28;20508;-84
2021/05/23 05:01:53;;;;;;;15.73;12.63;;;10.70;90.90;;;;;;2073122;28;20034;-83
2021/05/23 05:02:54;;;;;;;15.90;12.90;;;10.80;91.10;;;;;;2072610;28;20069;-84
2021/05/23 05:03:54;;;;;;;15.50;12.50;;;10.80;90.90;;;;;;2056433;28;20035;-84
2021/05/23 05:04:55;;;;;;;15.63;12.93;;;10.80;90.80;;;;;;2056771;28;20509;-84
2021/05/23 05:05:56;;;;;;;16.00;12.68;;;10.80;90.80;;;;;;2064745;28;20077;-84
2021/05/23 05:06:57;;;;;;;16.52;12.88;;;10.80;90.80;;;;;;2072778;28;20040;-83
2021/05/23 05:07:57;;;;;;;17.15;13.60;;;10.90;90.90;;;;;;2064851;28;20030;-84
2021/05/23 05:08:58;;;;;;;15.73;13.30;;;10.80;90.80;;;;;;2064744;28;20019;-83
2021/05/23 05:09:58;;;;;;;17.10;13.02;;;10.90;90.80;;;;;;2064675;28;20069;-83
2021/05/23 05:11:00;;;;;;;16.70;12.68;;;10.90;90.80;;;;;;2064549;28;20201;-83
2021/05/23 05:12:01;;;;;;;17.30;13.68;;;10.90;90.80;;;;;;2072726;28;20034;-83
2021/05/23 05:13:01;;;;;;;16.83;13.55;;;10.90;90.80;;;;;;2072694;28;20503;-83
2021/05/23 05:14:02;;;;;;;17.98;14.10;;;10.90;90.80;;;;;;2058887;28;20082;-84
2021/05/23 05:15:05;;;;;;;18.40;13.77;;;10.90;90.80;;;;;;2065967;28;20023;-84
2021/05/23 05:16:07;;;;;;;17.60;14.25;;;10.90;90.90;;;;;;2066988;28;20035;-83
2021/05/23 05:17:08;;;;;;;18.58;14.52;;;10.90;90.80;;;;;;2066717;28;20096;-84
2021/05/23 05:18:09;;;;;;;18.15;14.38;;;10.90;90.90;;;;;;2065910;28;20058;-83
2021/05/23 05:19:10;;;;;;;18.17;14.30;;;10.90;90.90;;;;;;2058284;28;20049;-83
2021/05/23 05:20:12;;;;;;;17.88;14.25;;;10.90;90.90;;;;;;2058710;28;20483;-83
2021/05/23 05:21:12;;;;;;;18.58;14.60;;;10.90;90.90;;;;;;2082787;28;20076;-84